Portales, NM (88130)

2:37 AM MST on December 09, 2016 (GMT -0700)
Cannon Air Force Base | | Change Station

Elev 4295 ft 34.38 °N, 103.32 °W | Updated 39 minutes ago

Overcast
Overcast
26 °F
Feels Like 13 °F
N
16
Wind Variable Wind from SW

Today
High -- | Low -- °F
--% Chance of Precip.
Yesterday
High -- | Low -- °F
Precip. -- in
Pressure 30.48 in
Visibility 10.0 miles
Clouds Overcast 1200 ft
Windchill 13 °F
Dew Point 25 °F
Humidity 99%
Rainfall 0.00 in
Snow Depth Not available.
6:48 AM 4:43 PM
Waxing Gibbous, 72% visible
METAR KCVS 090858Z AUTO 23014KT 10SM OVC012 M04/M04 A3039 RMK AO2 SLP322 T10361037 57020 $
Pressure 30.48 in
Visibility 10.0 miles
Clouds Overcast 1200 ft
Windchill 13 °F
Dew Point 25 °F
Humidity 99%
Rainfall 0.00 in
Snow Depth Not available.
6:48 AM 4:43 PM
Waxing Gibbous, 72% visible
METAR KCVS 090858Z AUTO 23014KT 10SM OVC012 M04/M04 A3039 RMK AO2 SLP322 T10361037 57020 $

10-Day Weather Forecast

Almanac

Astronomy

Dec. 09, 2016 Rise Set
Actual Time
Civil Twilight
Nautical Twilight
Astronomical Twilight
Moon
Length of Visible Light
Length of Day
Tomorrow will be .
, % of the Moon is Illuminated

Today's Extremes

State Highs State Lows

Community

WunderPhotos

Upload Photos

1,956,371 photos uploaded!

WunderBlog® & News

Nearby

Air Quality

  Air Quality AQ Index Pollutant
Not available.

Snow Depth

Station Depth Elevation

Earthquake Activity

City Distance Mag. Time & Date
Minimum magnitude displayed is 2.5.

Coastal Water Temperatures

Place Temperature

Stations

Nearby Weather Stations

Station Location Temp. Windchill Dew Point Humidity Wind Precip. Elev Updated Type
                   

Watches & Warnings

There are currently no watches in effect.